Time;durP1;ratioP1;P1;durP2;ratioP2;P2;SDS_P1;SDS_P2;PMS_P1;PMS_P2;Temp;Humidity;BMP_temperature;BMP_pressure;BME280_temperature;BME280_humidity;BME280_pressure;Samples;Min_cycle;Max_cycle;Signal;HPM_P1;HPM_P2
2022/12/08 00:01:44;;;;;;;28.55;20.88;;;;;;;2.62;100.00;100969.38;5227948;28;20023;-66
2022/12/08 00:04:16;;;;;;;27.65;21.05;;;;;;;2.63;100.00;100975.53;5227613;28;20124;-66
2022/12/08 00:09:39;;;;;;;30.55;21.70;;;;;;;2.65;100.00;100963.13;5229391;28;20041;-66
2022/12/08 00:12:14;;;;;;;31.83;21.65;;;;;;;2.66;100.00;100960.41;5229030;28;20132;-66
2022/12/08 00:14:46;;;;;;;31.75;21.80;;;;;;;2.65;100.00;100960.50;5227799;28;20031;-66
2022/12/08 00:17:17;;;;;;;36.28;23.60;;;;;;;2.64;100.00;100949.09;5226735;28;20033;-66
2022/12/08 00:19:49;;;;;;;32.58;22.27;;;;;;;2.64;100.00;100948.25;5226230;28;20029;-66
2022/12/08 00:22:20;;;;;;;34.58;24.27;;;;;;;2.65;100.00;100956.09;5227782;28;20408;-66
2022/12/08 00:24:51;;;;;;;36.20;24.65;;;;;;;2.64;100.00;100940.34;5226609;28;20026;-66
2022/12/08 00:27:23;;;;;;;33.60;23.50;;;;;;;2.70;100.00;100938.31;5227090;28;20037;-66
2022/12/08 00:29:54;;;;;;;38.17;24.98;;;;;;;2.68;100.00;100939.28;5228000;28;20053;-66
2022/12/08 00:32:25;;;;;;;36.13;25.15;;;;;;;2.63;100.00;100931.59;5228372;28;20120;-66
2022/12/08 00:34:57;;;;;;;38.55;25.88;;;;;;;2.63;100.00;100936.00;5227889;28;20044;-66
2022/12/08 00:37:28;;;;;;;43.28;27.98;;;;;;;2.64;100.00;100935.06;5226259;28;20478;-66
2022/12/08 00:39:59;;;;;;;40.08;26.67;;;;;;;2.64;100.00;100935.06;5228711;28;20026;-66
2022/12/08 00:42:30;;;;;;;40.75;26.23;;;;;;;2.64;100.00;100930.66;5227790;28;20037;-66
2022/12/08 00:45:02;;;;;;;40.72;26.70;;;;;;;2.65;100.00;100935.00;5226104;28;20044;-66
2022/12/08 00:47:33;;;;;;;43.03;28.85;;;;;;;2.65;100.00;100929.75;5227512;28;20029;-66
2022/12/08 00:50:05;;;;;;;41.47;27.00;;;;;;;2.66;100.00;100934.06;5221524;28;20060;-66
2022/12/08 00:52:37;;;;;;;43.45;27.88;;;;;;;2.65;100.00;100919.22;5226172;28;20722;-66
2022/12/08 00:55:08;;;;;;;40.33;27.05;;;;;;;2.64;100.00;100916.63;5226258;28;20053;-66
2022/12/08 00:57:39;;;;;;;42.08;28.17;;;;;;;2.64;100.00;100916.63;5227406;28;20061;-66
2022/12/08 01:00:11;;;;;;;41.88;27.77;;;;;;;2.68;100.00;100915.56;5226974;28;20490;-66
2022/12/08 01:02:42;;;;;;;43.58;28.65;;;;;;;2.67;100.00;100903.34;5227080;28;20486;-66
2022/12/08 01:05:13;;;;;;;41.63;28.00;;;;;;;2.64;100.00;100904.31;5226227;28;20063;-66
2022/12/08 01:07:47;;;;;;;43.63;28.35;;;;;;;2.65;100.00;100905.19;5227191;28;20033;-66
2022/12/08 01:10:19;;;;;;;41.22;27.77;;;;;;;2.68;100.00;100905.03;5227112;28;20057;-66
2022/12/08 01:12:50;;;;;;;38.15;26.48;;;;;;;2.67;100.00;100895.44;5223754;28;20057;-66
2022/12/08 01:15:21;;;;;;;38.50;26.20;;;;;;;2.66;100.00;100891.06;5226988;28;20117;-66
2022/12/08 01:17:53;;;;;;;37.65;24.50;;;;;;;2.67;100.00;100900.72;5225077;28;20713;-66
2022/12/08 01:20:24;;;;;;;33.67;23.55;;;;;;;2.72;100.00;100896.97;5225902;28;20375;-66
2022/12/08 01:22:55;;;;;;;34.70;22.85;;;;;;;2.67;100.00;100891.03;5221670;28;20029;-66
2022/12/08 01:25:27;;;;;;;33.13;22.17;;;;;;;2.67;100.00;100879.63;5222012;28;20071;-66
2022/12/08 01:27:58;;;;;;;29.63;20.98;;;;;;;2.65;100.00;100886.75;5227260;28;20083;-66
2022/12/08 01:30:29;;;;;;;29.45;20.08;;;;;;;2.72;100.00;100885.53;5232007;28;20025;-66
2022/12/08 01:33:01;;;;;;;30.30;20.02;;;;;;;2.68;100.00;100883.97;5233144;28;20059;-66
2022/12/08 01:35:33;;;;;;;29.30;19.30;;;;;;;2.69;100.00;100890.97;5223496;28;20037;-66
2022/12/08 01:38:04;;;;;;;28.95;19.88;;;;;;;2.75;100.00;100886.25;5227194;28;20441;-66
2022/12/08 01:40:35;;;;;;;26.67;18.50;;;;;;;2.71;100.00;100891.75;5226533;28;20022;-66
2022/12/08 01:43:14;;;;;;;28.65;18.20;;;;;;;2.72;100.00;100893.44;5227310;28;20055;-66
2022/12/08 01:45:46;;;;;;;27.67;18.17;;;;;;;2.72;100.00;100890.81;5226179;28;20076;-66
2022/12/08 01:48:21;;;;;;;26.08;18.30;;;;;;;2.72;100.00;100894.31;5225017;28;20345;-66
2022/12/08 01:50:54;;;;;;;27.80;18.48;;;;;;;2.73;100.00;100889.91;5224781;28;20040;-66
2022/12/08 01:53:31;;;;;;;25.50;17.65;;;;;;;2.72;100.00;100888.16;5225416;28;20033;-66
2022/12/08 01:56:12;;;;;;;25.98;16.95;;;;;;;2.72;100.00;100878.50;5225532;28;20034;-66
2022/12/08 01:58:48;;;;;;;26.92;17.88;;;;;;;2.73;100.00;100880.22;5227642;28;20033;-66
2022/12/08 02:01:20;;;;;;;25.05;18.20;;;;;;;2.72;100.00;100873.25;5227344;28;20033;-66
2022/12/08 02:03:58;;;;;;;27.88;17.80;;;;;;;2.74;100.00;100873.16;5228339;28;20435;-66
2022/12/08 02:06:34;;;;;;;26.95;17.90;;;;;;;2.76;100.00;100876.56;5225643;28;20110;-66
2022/12/08 02:09:06;;;;;;;30.95;17.95;;;;;;;2.75;100.00;100866.97;5223691;28;20040;-66
2022/12/08 02:11:37;;;;;;;24.10;17.50;;;;;;;2.74;100.00;100866.13;5228986;28;20033;-66
2022/12/08 02:14:10;;;;;;;24.25;16.42;;;;;;;2.77;100.00;100864.28;5225756;28;20210;-66
2022/12/08 02:16:57;;;;;;;25.65;17.05;;;;;;;2.75;100.00;100856.44;5222519;28;20075;-66
2022/12/08 02:20:07;;;;;;;23.67;16.52;;;;;;;2.82;100.00;100857.88;5221654;28;20039;-66
2022/12/08 02:22:51;;;;;;;23.65;15.50;;;;;;;2.82;100.00;100854.38;5224968;28;20036;-66
2022/12/08 02:25:37;;;;;;;23.25;15.70;;;;;;;2.77;100.00;100851.09;5228305;28;20025;-66
2022/12/08 02:28:41;;;;;;;23.55;15.20;;;;;;;2.78;100.00;100850.16;5232041;28;20124;-66
2022/12/08 02:31:35;;;;;;;21.90;15.23;;;;;;;2.75;100.00;100848.53;5229935;28;20029;-66
2022/12/08 02:34:21;;;;;;;19.95;13.35;;;;;;;2.75;100.00;100849.38;5232092;28;20399;-66
2022/12/08 02:36:57;;;;;;;23.60;14.00;;;;;;;2.75;100.00;100840.63;5227879;28;20037;-66
2022/12/08 02:39:52;;;;;;;19.60;13.10;;;;;;;2.75;100.00;100823.03;5233474;28;20071;-66
2022/12/08 02:42:32;;;;;;;20.67;13.35;;;;;;;2.74;100.00;100829.25;5227973;28;20029;-66
2022/12/08 02:45:14;;;;;;;20.65;12.23;;;;;;;2.75;100.00;100828.31;5228059;28;20060;-66
2022/12/08 02:47:46;;;;;;;15.75;11.05;;;;;;;2.74;100.00;100823.09;5228323;28;20021;-66
2022/12/08 02:50:17;;;;;;;17.42;11.20;;;;;;;2.86;100.00;100821.72;5224120;28;20044;-66
2022/12/08 02:52:49;;;;;;;17.85;10.10;;;;;;;2.77;100.00;100824.75;5231022;28;20037;-66
2022/12/08 02:55:26;;;;;;;16.05;9.98;;;;;;;2.77;100.00;100817.69;5233631;28;20205;-66
2022/12/08 02:58:19;;;;;;;17.65;10.30;;;;;;;2.77;100.00;100806.31;5230238;28;20129;-66
2022/12/08 03:01:03;;;;;;;17.98;10.82;;;;;;;2.77;100.00;100804.53;5232402;28;20359;-66
2022/12/08 03:03:58;;;;;;;17.17;11.48;;;;;;;2.79;100.00;100801.84;5229082;28;20025;-66
2022/12/08 03:06:40;;;;;;;17.63;11.52;;;;;;;2.77;100.00;100801.91;5227739;28;20029;-66
2022/12/08 03:09:33;;;;;;;20.30;11.88;;;;;;;2.79;100.00;100797.41;5232288;28;20021;-66
2022/12/08 03:12:23;;;;;;;17.92;12.15;;;;;;;2.77;100.00;100796.63;5230568;28;20035;-66
2022/12/08 03:14:58;;;;;;;17.08;12.05;;;;;;;2.77;100.00;100801.06;5231287;28;20033;-66
2022/12/08 03:17:31;;;;;;;19.48;12.13;;;;;;;2.78;100.00;100800.09;5229145;28;20060;-66
2022/12/08 03:20:08;;;;;;;19.95;12.90;;;;;;;2.83;100.00;100800.78;5230328;28;20026;-66
2022/12/08 03:22:41;;;;;;;19.60;13.32;;;;;;;2.81;100.00;100792.09;5225045;28;20418;-66
2022/12/08 03:25:18;;;;;;;22.98;14.13;;;;;;;2.78;100.00;100793.09;5221382;28;20396;-66
2022/12/08 03:27:50;;;;;;;23.40;14.68;;;;;;;2.78;100.00;100784.31;5221887;28;20345;-66
2022/12/08 03:30:21;;;;;;;23.55;14.80;;;;;;;2.79;100.00;100781.59;5227427;28;20574;-66
2022/12/08 03:32:53;;;;;;;26.77;15.95;;;;;;;2.81;100.00;100786.81;5227447;28;20091;-66
2022/12/08 03:35:28;;;;;;;27.95;16.95;;;;;;;2.81;100.00;100776.28;5233424;28;20410;-66
2022/12/08 03:38:06;;;;;;;30.40;18.70;;;;;;;2.81;100.00;100774.47;5227598;28;20022;-66
2022/12/08 03:40:38;;;;;;;30.25;19.30;;;;;;;2.84;100.00;100773.47;5229095;28;20135;-66
2022/12/08 03:43:09;;;;;;;37.13;21.08;;;;;;;2.83;100.00;100766.50;5226884;28;20034;-66
2022/12/08 03:45:40;;;;;;;33.72;21.70;;;;;;;2.85;100.00;100765.50;5228985;28;20640;-66
2022/12/08 03:48:12;;;;;;;38.88;23.80;;;;;;;2.87;100.00;100762.81;5224575;28;20534;-66
2022/12/08 03:50:43;;;;;;;43.38;25.25;;;;;;;2.86;100.00;100767.22;5227519;28;20021;-66
2022/12/08 03:53:14;;;;;;;45.58;26.00;;;;;;;2.88;100.00;100760.09;5227055;28;20423;-66
2022/12/08 03:55:45;;;;;;;47.53;26.95;;;;;;;2.92;100.00;100766.09;5227781;28;20663;-66
2022/12/08 03:58:17;;;;;;;50.60;28.33;;;;;;;2.88;100.00;100749.56;5229204;28;20375;-66
2022/12/08 04:00:48;;;;;;;52.10;29.77;;;;;;;2.90;100.00;100758.25;5226287;28;20047;-66
2022/12/08 04:03:19;;;;;;;54.75;30.33;;;;;;;2.90;100.00;100753.00;5230719;28;20030;-66
2022/12/08 04:05:51;;;;;;;57.40;31.33;;;;;;;2.92;100.00;100747.66;5227082;28;20057;-65
2022/12/08 04:08:23;;;;;;;54.58;30.25;;;;;;;2.91;100.00;100752.03;5229367;28;20049;-65
2022/12/08 04:10:54;;;;;;;56.38;31.38;;;;;;;2.93;100.00;100749.34;5228451;28;20060;-65
2022/12/08 04:13:26;;;;;;;55.20;31.92;;;;;;;2.95;100.00;100742.22;5227460;28;20067;-65
2022/12/08 04:15:57;;;;;;;51.97;29.27;;;;;;;2.91;100.00;100744.13;5227510;28;20041;-66
2022/12/08 04:18:28;;;;;;;53.40;29.98;;;;;;;2.90;100.00;100741.59;5225787;28;20411;-65
2022/12/08 04:21:00;;;;;;;56.65;29.67;;;;;;;2.93;100.00;100757.25;5228220;28;20036;-65
2022/12/08 04:23:31;;;;;;;51.28;28.77;;;;;;;2.93;100.00;100749.34;5226909;28;20502;-65
2022/12/08 04:26:03;;;;;;;50.80;29.52;;;;;;;2.93;100.00;100747.59;5228105;28;20116;-65
2022/12/08 04:28:35;;;;;;;43.50;24.77;;;;;;;2.93;100.00;100744.06;5225048;28;20033;-66
2022/12/08 04:31:06;;;;;;;46.67;26.48;;;;;;;2.93;100.00;100734.41;5219711;28;20037;-65
2022/12/08 04:33:38;;;;;;;37.83;23.45;;;;;;;2.93;100.00;100733.53;5222453;28;20432;-65
2022/12/08 04:36:09;;;;;;;41.20;22.95;;;;;;;2.94;100.00;100738.75;5223256;28;20037;-66
2022/12/08 04:38:40;;;;;;;35.03;22.25;;;;;;;2.93;100.00;100730.91;5226333;28;20318;-65
2022/12/08 04:41:11;;;;;;;37.58;21.45;;;;;;;2.93;100.00;100734.41;5230433;28;20037;-66
2022/12/08 04:43:43;;;;;;;33.42;20.20;;;;;;;2.92;100.00;100722.16;5225630;28;20110;-66
2022/12/08 04:46:14;;;;;;;33.10;19.65;;;;;;;2.91;100.00;100720.41;5228364;28;20046;-65
2022/12/08 04:48:45;;;;;;;30.27;18.83;;;;;;;2.91;100.00;100701.97;5226277;28;20518;-66
2022/12/08 04:51:19;;;;;;;30.55;18.20;;;;;;;2.95;100.00;100707.97;5230436;28;20394;-66
2022/12/08 04:53:50;;;;;;;30.30;17.52;;;;;;;2.93;100.00;100702.78;5229990;28;20108;-66
2022/12/08 04:56:21;;;;;;;24.13;14.52;;;;;;;2.92;100.00;100721.31;5229234;28;20060;-65
2022/12/08 04:58:53;;;;;;;21.38;12.32;;;;;;;2.91;100.00;100722.22;5230983;28;20033;-65
2022/12/08 05:01:24;;;;;;;18.10;11.55;;;;;;;2.95;100.00;100707.97;5226718;28;20057;-65
2022/12/08 05:03:55;;;;;;;14.85;8.77;;;;;;;2.88;100.00;100714.47;5225664;28;20025;-65
2022/12/08 05:06:27;;;;;;;12.75;7.13;;;;;;;2.85;100.00;100712.81;5227035;28;21534;-65
2022/12/08 05:08:58;;;;;;;11.27;6.30;;;;;;;2.83;100.00;100714.66;5227164;28;20030;-65
2022/12/08 05:11:29;;;;;;;10.77;6.50;;;;;;;2.81;100.00;100720.94;5227106;28;20686;-65
2022/12/08 05:14:00;;;;;;;10.48;5.82;;;;;;;2.81;100.00;100719.16;5228002;28;20470;-65
2022/12/08 05:16:32;;;;;;;9.00;5.20;;;;;;;2.78;100.00;100719.31;5226511;28;20033;-65
2022/12/08 05:19:04;;;;;;;8.05;5.22;;;;;;;2.77;100.00;100724.66;5226250;28;20499;-65
2022/12/08 05:21:35;;;;;;;8.35;5.28;;;;;;;2.77;100.00;100712.31;5227271;28;20029;-65
2022/12/08 05:24:06;;;;;;;9.93;5.40;;;;;;;2.82;100.00;100715.59;5228917;28;20388;-65
2022/12/08 05:26:38;;;;;;;10.48;5.60;;;;;;;2.82;100.00;100715.59;5227234;28;20041;-65
2022/12/08 05:29:09;;;;;;;9.07;5.88;;;;;;;2.81;100.00;100719.16;5226942;28;20565;-65
2022/12/08 05:31:40;;;;;;;11.48;6.20;;;;;;;2.81;100.00;100713.88;5226471;28;20672;-66
2022/12/08 05:34:12;;;;;;;11.52;6.68;;;;;;;2.81;100.00;100710.41;5226469;28;20025;-65
2022/12/08 05:36:43;;;;;;;13.07;7.13;;;;;;;2.87;100.00;100712.75;5225260;28;20061;-65
2022/12/08 05:39:15;;;;;;;11.20;6.70;;;;;;;2.89;100.00;100709.09;5226515;28;20075;-65
2022/12/08 05:41:46;;;;;;;12.15;6.75;;;;;;;2.82;100.00;100710.34;5228725;28;20539;-65
2022/12/08 05:44:17;;;;;;;10.77;6.18;;;;;;;2.83;100.00;100706.75;5218026;28;21343;-65
2022/12/08 05:46:48;;;;;;;9.85;5.10;;;;;;;2.79;100.00;100709.63;5220020;28;20075;-65
2022/12/08 05:49:20;;;;;;;6.72;3.45;;;;;;;2.76;100.00;100715.88;5225019;28;20042;-65
2022/12/08 05:51:51;;;;;;;6.13;2.47;;;;;;;2.71;100.00;100716.09;5221212;28;20155;-65
2022/12/08 05:54:22;;;;;;;6.32;2.33;;;;;;;2.65;100.00;100705.84;5222939;28;20060;-65
2022/12/08 05:56:54;;;;;;;6.95;2.83;;;;;;;2.62;100.00;100707.75;5222811;28;20589;-65
2022/12/08 05:59:25;;;;;;;9.90;3.20;;;;;;;2.57;100.00;100701.84;5225860;28;20455;-65
2022/12/08 06:01:56;;;;;;;6.60;2.83;;;;;;;2.57;100.00;100702.72;5229251;28;20103;-65
2022/12/08 06:04:27;;;;;;;5.97;3.13;;;;;;;2.59;100.00;100710.53;5225689;28;20095;-65
2022/12/08 06:06:59;;;;;;;7.35;3.55;;;;;;;2.60;100.00;100702.56;5231158;28;20053;-65
2022/12/08 06:09:30;;;;;;;7.72;3.42;;;;;;;2.61;100.00;100709.53;5228701;28;20037;-65
2022/12/08 06:12:02;;;;;;;5.55;3.55;;;;;;;2.61;100.00;100692.88;5231193;28;20111;-65
2022/12/08 06:14:34;;;;;;;7.75;3.80;;;;;;;2.66;100.00;100694.38;5230421;28;20025;-65
2022/12/08 06:17:05;;;;;;;7.00;3.28;;;;;;;2.61;100.00;100687.59;5230823;28;20453;-65
2022/12/08 06:19:36;;;;;;;8.80;3.60;;;;;;;2.58;100.00;100688.59;5230828;28;20432;-65
2022/12/08 06:22:08;;;;;;;8.80;3.95;;;;;;;2.58;100.00;100688.59;5231360;28;20025;-65
2022/12/08 06:24:39;;;;;;;6.50;3.63;;;;;;;2.58;100.00;100693.88;5225392;28;20039;-65
2022/12/08 06:27:10;;;;;;;9.43;4.72;;;;;;;2.61;100.00;100693.75;5228169;28;20049;-65
2022/12/08 06:29:41;;;;;;;8.38;4.53;;;;;;;2.60;100.00;100680.63;5230098;28;20068;-65
2022/12/08 06:32:13;;;;;;;8.38;4.90;;;;;;;2.57;100.00;100694.81;5230511;28;20033;-65
2022/12/08 06:34:44;;;;;;;11.30;4.65;;;;;;;2.57;100.00;100689.53;5231063;28;20041;-65
2022/12/08 06:37:16;;;;;;;6.35;4.00;;;;;;;2.58;100.00;100698.28;5238372;28;20041;-65
2022/12/08 06:39:48;;;;;;;6.55;3.92;;;;;;;2.54;100.00;100690.50;5231804;28;20822;-65
2022/12/08 06:45:11;;;;;;;8.65;3.90;;;;;;;2.52;100.00;100694.16;5227363;28;20037;-65
2022/12/08 06:47:42;;;;;;;7.57;3.83;;;;;;;2.51;100.00;100695.94;5231561;28;20072;-65
2022/12/08 06:50:14;;;;;;;6.32;4.20;;;;;;;2.56;100.00;100693.09;5231194;28;20037;-65
2022/12/08 06:52:45;;;;;;;11.43;4.72;;;;;;;2.55;100.00;100692.25;5231328;28;20037;-64
2022/12/08 06:55:16;;;;;;;10.23;4.72;;;;;;;2.54;100.00;100684.41;5231244;28;20096;-64
2022/12/08 06:57:48;;;;;;;10.95;5.15;;;;;;;2.63;100.00;100683.13;5232398;28;20660;-64
2022/12/08 07:00:19;;;;;;;7.55;4.90;;;;;;;2.57;100.00;100679.00;5224249;28;20067;-64
2022/12/08 07:02:51;;;;;;;10.05;5.53;;;;;;;2.60;100.00;100685.91;5234755;28;20036;-64
2022/12/08 07:05:22;;;;;;;12.93;6.07;;;;;;;2.62;100.00;100682.25;5231974;28;20044;-64
2022/12/08 07:07:53;;;;;;;9.35;5.85;;;;;;;2.62;100.00;100684.91;5232504;28;20064;-66
2022/12/08 07:10:24;;;;;;;11.38;7.68;;;;;;;2.62;100.00;100686.69;5228241;28;20400;-66
2022/12/08 07:12:56;;;;;;;12.73;7.60;;;;;;;2.59;100.00;100692.97;5230915;28;20452;-66
2022/12/08 07:15:27;;;;;;;12.35;7.45;;;;;;;2.60;100.00;100692.03;5231075;28;20034;-66
2022/12/08 07:17:58;;;;;;;15.38;7.95;;;;;;;2.63;100.00;100688.41;5230222;28;20069;-66
2022/12/08 07:20:29;;;;;;;14.30;9.15;;;;;;;2.63;100.00;100693.69;5227238;28;20033;-66
2022/12/08 07:23:01;;;;;;;18.00;11.32;;;;;;;2.61;100.00;100693.75;5226826;28;20507;-66
2022/12/08 07:25:32;;;;;;;24.65;15.30;;;;;;;2.60;100.00;100699.91;5216532;28;20440;-65
2022/12/08 07:28:11;;;;;;;29.70;17.98;;;;;;;2.62;100.00;100691.94;5227099;28;20451;-72
2022/12/08 07:30:42;;;;;;;39.25;20.92;;;;;;;2.62;100.00;100694.59;5225168;28;20080;-69
2022/12/08 07:33:13;;;;;;;36.70;21.58;;;;;;;2.66;100.00;100697.00;5226257;28;20116;-69
2022/12/08 07:35:59;;;;;;;44.67;26.05;;;;;;;2.63;100.00;100696.31;5224510;28;20029;-67
2022/12/08 07:38:31;;;;;;;45.70;27.88;;;;;;;2.63;100.00;100697.16;5228301;28;20119;-68
2022/12/08 07:41:03;;;;;;;55.55;30.95;;;;;;;2.64;100.00;100690.09;5226826;28;20160;-64
2022/12/08 07:43:34;;;;;;;57.00;32.58;;;;;;;2.64;100.00;100687.47;5225001;28;20042;-66
2022/12/08 07:46:05;;;;;;;60.03;34.55;;;;;;;2.63;100.00;100691.03;5224956;28;20026;-69
2022/12/08 07:48:36;;;;;;;58.45;32.30;;;;;;;2.67;100.00;100671.53;5223341;28;20029;-70
2022/12/08 07:51:10;;;;;;;57.42;32.75;;;;;;;2.62;100.00;100690.16;5226087;28;20060;-69
2022/12/08 07:53:44;;;;;;;62.00;34.88;;;;;;;2.61;100.00;100696.38;5221928;28;20084;-69
2022/12/08 07:56:16;;;;;;;56.85;32.70;;;;;;;2.60;100.00;100693.81;5227595;28;20053;-69
2022/12/08 07:58:50;;;;;;;61.47;35.25;;;;;;;2.59;100.00;100702.63;5225941;28;20103;-69
2022/12/08 08:01:27;;;;;;;63.78;35.40;;;;;;;2.59;100.00;100694.72;5225978;28;20108;-68
2022/12/08 08:04:01;;;;;;;57.38;32.67;;;;;;;2.55;100.00;100694.00;5226689;28;20021;-67
2022/12/08 08:06:33;;;;;;;60.75;34.60;;;;;;;2.54;100.00;100703.69;5228597;28;20120;-67
2022/12/08 08:09:05;;;;;;;53.55;31.45;;;;;;;2.53;100.00;100701.13;5226934;28;20392;-67
2022/12/08 08:11:36;;;;;;;47.00;27.08;;;;;;;2.47;100.00;100696.97;5225302;28;20025;-67
2022/12/08 08:14:07;;;;;;;43.17;25.35;;;;;;;2.43;100.00;100694.56;5227482;28;20078;-67
2022/12/08 08:16:45;;;;;;;42.50;24.40;;;;;;;2.39;100.00;100699.09;5229986;28;20400;-67
2022/12/08 08:19:16;;;;;;;39.20;21.25;;;;;;;2.38;100.00;100694.78;5226549;28;20494;-67
2022/12/08 08:21:47;;;;;;;34.22;20.38;;;;;;;2.38;100.00;100699.16;5226382;28;20108;-67
2022/12/08 08:24:21;;;;;;;34.30;20.15;;;;;;;2.37;100.00;100695.69;5225341;28;20846;-67
2022/12/08 08:26:54;;;;;;;32.97;20.73;;;;;;;2.37;100.00;100695.69;5224071;28;20087;-65
2022/12/08 08:29:25;;;;;;;36.05;20.25;;;;;;;2.41;100.00;100701.69;5223665;28;20033;-66
2022/12/08 08:31:56;;;;;;;28.75;16.98;;;;;;;2.39;100.00;100701.75;5228415;28;20961;-66
2022/12/08 08:34:27;;;;;;;27.80;15.70;;;;;;;2.39;100.00;100698.25;5227665;28;20491;-66
2022/12/08 08:36:59;;;;;;;28.05;16.75;;;;;;;2.41;100.00;100694.63;5227053;28;20039;-67
2022/12/08 08:39:30;;;;;;;30.02;17.83;;;;;;;2.40;100.00;100697.31;5222792;28;20037;-67
2022/12/08 08:42:02;;;;;;;30.20;18.60;;;;;;;2.43;100.00;100694.56;5229351;28;20048;-66
2022/12/08 08:44:33;;;;;;;32.88;19.85;;;;;;;2.43;100.00;100700.69;5228779;28;20033;-66
2022/12/08 08:47:04;;;;;;;30.55;18.20;;;;;;;2.41;100.00;100697.25;5224241;28;20018;-67
2022/12/08 08:49:36;;;;;;;25.27;15.93;;;;;;;2.42;100.00;100685.81;5225178;28;20029;-67
2022/12/08 08:52:07;;;;;;;23.52;15.98;;;;;;;2.42;100.00;100691.09;5225147;28;20034;-67
2022/12/08 08:54:38;;;;;;;29.38;17.05;;;;;;;2.47;100.00;100688.22;5226505;28;20034;-67
2022/12/08 08:57:10;;;;;;;34.50;19.50;;;;;;;2.50;100.00;100690.75;5226953;28;20056;-67
2022/12/08 08:59:42;;;;;;;44.50;26.75;;;;;;;2.54;100.00;100695.78;5225254;28;20523;-67
2022/12/08 09:02:18;;;;;;;57.75;31.05;;;;;;;2.57;100.00;100693.94;5227588;28;20063;-67
2022/12/08 09:04:49;;;;;;;58.78;30.75;;;;;;;2.57;100.00;100692.19;5225731;28;20176;-66
2022/12/08 09:07:20;;;;;;;58.22;31.60;;;;;;;2.72;100.00;100695.84;5226627;28;20029;-67
2022/12/08 09:09:51;;;;;;;62.17;32.53;;;;;;;2.60;100.00;100693.81;5226384;28;20032;-67
2022/12/08 09:12:23;;;;;;;62.15;31.95;;;;;;;2.63;100.00;100686.63;5240752;28;20025;-67
2022/12/08 09:14:54;;;;;;;57.22;32.40;;;;;;;2.69;100.00;100688.97;5225738;28;21215;-67
2022/12/08 09:17:25;;;;;;;57.28;29.92;;;;;;;2.66;100.00;100691.72;5226918;28;20507;-67
2022/12/08 09:19:56;;;;;;;53.83;30.65;;;;;;;2.69;100.00;100681.06;5227434;28;20379;-68
2022/12/08 09:22:28;;;;;;;54.80;30.13;;;;;;;2.65;100.00;100679.50;5220129;28;20048;-67
2022/12/08 09:24:59;;;;;;;54.70;30.30;;;;;;;2.68;100.00;100684.59;5217975;28;20033;-67
2022/12/08 09:27:30;;;;;;;54.40;29.30;;;;;;;2.69;100.00;100678.44;5227114;28;20037;-67
2022/12/08 09:30:02;;;;;;;49.72;28.05;;;;;;;2.69;100.00;100683.69;5226782;28;20040;-68
2022/12/08 09:32:34;;;;;;;47.30;25.30;;;;;;;2.75;100.00;100680.78;5228430;28;20384;-68
2022/12/08 09:35:05;;;;;;;52.00;27.20;;;;;;;2.86;100.00;100684.69;5226140;28;20327;-67
2022/12/08 09:37:37;;;;;;;53.47;26.38;;;;;;;2.78;100.00;100677.16;5228582;28;20419;-67
2022/12/08 09:40:14;;;;;;;49.45;25.58;;;;;;;2.82;100.00;100678.72;5228090;28;20029;-67
2022/12/08 09:43:00;;;;;;;52.22;24.88;;;;;;;2.84;100.00;100681.25;5228620;28;20030;-66
2022/12/08 09:45:34;;;;;;;49.10;24.95;;;;;;;2.83;100.00;100683.03;5230499;28;20422;-67
2022/12/08 09:48:13;;;;;;;60.15;29.98;;;;;;;2.83;100.00;100677.78;5230051;28;20025;-67
2022/12/08 09:50:51;;;;;;;69.28;34.78;;;;;;;2.86;100.00;100677.66;5230313;28;20080;-66
2022/12/08 09:53:25;;;;;;;77.57;38.22;;;;;;;2.87;100.00;100689.03;5231118;28;20838;-66
2022/12/08 09:56:11;;;;;;;87.90;40.35;;;;;;;2.90;100.00;100673.09;5227398;28;20065;-66
2022/12/08 09:58:51;;;;;;;90.35;42.42;;;;;;;2.92;100.00;100671.22;5229097;28;20396;-66
2022/12/08 10:01:28;;;;;;;90.28;42.75;;;;;;;2.93;100.00;100673.81;5231711;28;20038;-66
2022/12/08 10:04:00;;;;;;;105.70;47.28;;;;;;;2.92;100.00;100666.81;5231691;28;20131;-67
2022/12/08 10:06:40;;;;;;;106.60;47.78;;;;;;;2.92;100.00;100668.59;5229886;28;20029;-66
2022/12/08 10:09:20;;;;;;;102.18;46.92;;;;;;;2.90;100.00;100667.81;5229102;28;20033;-66
2022/12/08 10:12:10;;;;;;;102.78;46.15;;;;;;;2.86;100.00;100672.38;5226832;28;20061;-66
2022/12/08 10:15:15;;;;;;;99.80;45.38;;;;;;;2.90;100.00;100667.81;5230844;28;20030;-66
2022/12/08 10:17:49;;;;;;;98.97;44.92;;;;;;;2.86;100.00;100674.16;5243193;28;20037;-66
2022/12/08 10:20:22;;;;;;;;;;;;;;;2.88;100.00;100665.25;5230591;28;20036;-66
2022/12/08 10:23:12;;;;;;;98.70;43.67;;;;;;;2.90;100.00;100663.41;5229097;28;20209;-66
2022/12/08 10:25:50;;;;;;;104.05;46.42;;;;;;;2.91;100.00;100653.69;5229290;28;20095;-66
2022/12/08 10:28:22;;;;;;;91.63;43.80;;;;;;;2.87;100.00;100650.34;5231549;28;20052;-66
2022/12/08 10:30:53;;;;;;;95.78;43.90;;;;;;;2.96;100.00;100653.50;5231217;28;20430;-66
2022/12/08 10:33:27;;;;;;;95.50;45.20;;;;;;;2.90;100.00;100657.28;5229964;28;20065;-67
2022/12/08 10:36:01;;;;;;;88.28;42.03;;;;;;;2.91;100.00;100651.91;5226454;28;20051;-67
2022/12/08 10:38:38;;;;;;;81.88;38.85;;;;;;;2.86;100.00;100638.13;5227595;28;20048;-67
2022/12/08 10:41:09;;;;;;;80.95;37.85;;;;;;;2.86;100.00;100643.38;5225357;28;20033;-66
2022/12/08 10:43:48;;;;;;;74.05;36.85;;;;;;;2.83;100.00;100650.59;5225848;28;20036;-67
2022/12/08 10:46:25;;;;;;;76.13;35.63;;;;;;;2.82;100.00;100655.00;5228786;28;20037;-66
2022/12/08 10:49:05;;;;;;;73.43;34.72;;;;;;;2.81;100.00;100653.28;5227397;28;20044;-67
2022/12/08 10:51:39;;;;;;;63.78;33.33;;;;;;;2.75;100.00;100656.22;5227139;28;20369;-69
2022/12/08 10:54:33;;;;;;;61.77;31.93;;;;;;;2.73;100.00;100658.91;5230291;28;20035;-68
2022/12/08 10:57:04;;;;;;;68.47;31.15;;;;;;;2.68;100.00;100653.00;5230218;28;20075;-67
2022/12/08 10:59:41;;;;;;;62.53;32.17;;;;;;;2.69;100.00;100651.25;5230999;28;20037;-67
2022/12/08 11:02:19;;;;;;;70.68;34.33;;;;;;;2.69;100.00;100660.00;5225380;28;20056;-67
2022/12/08 11:05:00;;;;;;;65.63;33.55;;;;;;;2.68;100.00;100652.16;5230043;28;20055;-67
2022/12/08 11:07:32;;;;;;;59.80;31.25;;;;;;;2.64;100.00;100651.44;5229254;28;20491;-67
2022/12/08 11:10:04;;;;;;;52.15;27.40;;;;;;;2.61;100.00;100641.06;5229954;28;20075;-67
2022/12/08 11:12:36;;;;;;;56.03;30.80;;;;;;;2.59;100.00;100636.78;5230464;28;20427;-67
2022/12/08 11:15:14;;;;;;;58.08;31.02;;;;;;;2.62;100.00;100636.63;5231004;28;20481;-67
2022/12/08 11:17:59;;;;;;;54.97;29.55;;;;;;;2.60;100.00;100635.88;5228288;28;20081;-67
2022/12/08 11:20:38;;;;;;;50.38;25.98;;;;;;;2.56;100.00;100637.78;5227131;28;20025;-66
2022/12/08 11:23:23;;;;;;;44.22;25.75;;;;;;;2.53;100.00;100633.53;5225809;28;20413;-66
2022/12/08 11:25:57;;;;;;;;;;;;;;;2.54;100.00;100632.56;5223000;28;20033;-67
2022/12/08 11:28:29;;;;;;;47.42;26.00;;;;;;;2.43;100.00;100634.84;5225458;28;19920;-66
2022/12/08 11:31:11;;;;;;;54.17;30.02;;;;;;;2.41;100.00;100622.69;5224121;28;20036;-66
2022/12/08 11:33:44;;;;;;;58.22;31.90;;;;;;;2.39;100.00;100609.59;5223308;28;20155;-66
2022/12/08 11:36:15;;;;;;;59.20;32.30;;;;;;;2.40;100.00;100618.34;5228058;28;20033;-66
2022/12/08 11:38:50;;;;;;;62.15;34.20;;;;;;;2.41;100.00;100615.63;5222872;28;20029;-66
2022/12/08 11:41:30;;;;;;;68.90;35.13;;;;;;;2.44;100.00;100612.88;5226441;28;20039;-66
2022/12/08 11:44:25;;;;;;;72.95;37.83;;;;;;;2.46;100.00;100608.38;5223906;28;20418;-66
2022/12/08 11:47:20;;;;;;;83.68;40.03;;;;;;;2.52;100.00;100610.72;5221484;28;20049;-66
2022/12/08 11:50:13;;;;;;;71.18;36.75;;;;;;;2.54;100.00;100608.03;5223829;28;20038;-66